Time;durP1;ratioP1;P1;durP2;ratioP2;P2;SDS_P1;SDS_P2;PMS_P1;PMS_P2;Temp;Humidity;BMP_temperature;BMP_pressure;BME280_temperature;BME280_humidity;BME280_pressure;Samples;Min_cycle;Max_cycle;Signal;HPM_P1;HPM_P2
2022/12/31 00:02:19;;;;;;;;;;;10.30;99.90;;;;;;4978595;28;20009;-70
2022/12/31 00:04:44;;;;;;;;;;;10.30;99.90;;;;;;4978849;28;20336;-71
2022/12/31 00:07:10;;;;;;;;;;;10.30;99.90;;;;;;4981231;28;20378;-70
2022/12/31 00:09:35;;;;;;;;;;;10.30;99.90;;;;;;4980705;28;19929;-70
2022/12/31 00:12:01;;;;;;;;;;;10.30;99.90;;;;;;4980961;28;19922;-70
2022/12/31 00:14:26;;;;;;;;;;;10.40;99.90;;;;;;4980286;28;20370;-70
2022/12/31 00:16:52;;;;;;;;;;;10.40;99.90;;;;;;4981644;28;19928;-69
2022/12/31 00:19:17;;;;;;;;;;;10.40;99.90;;;;;;4979065;28;20382;-69
2022/12/31 00:21:43;;;;;;;;;;;10.40;99.90;;;;;;4985306;28;20008;-69
2022/12/31 00:24:09;;;;;;;;;;;10.40;99.90;;;;;;4981146;28;20300;-69
2022/12/31 00:26:35;;;;;;;;;;;10.50;99.90;;;;;;4982925;28;19929;-70
2022/12/31 00:29:01;;;;;;;;;;;10.60;99.90;;;;;;4983488;28;19921;-70
2022/12/31 00:31:28;;;;;;;;;;;10.50;99.90;;;;;;4980043;28;19973;-70
2022/12/31 00:33:54;;;;;;;;;;;10.50;99.90;;;;;;4982824;28;19922;-69
2022/12/31 00:36:21;;;;;;;;;;;10.50;99.90;;;;;;4983019;28;19922;-70
2022/12/31 00:38:47;;;;;;;;;;;10.60;99.90;;;;;;4980111;28;20010;-70
2022/12/31 00:41:14;;;;;;;;;;;10.50;99.90;;;;;;4984128;28;19922;-69
2022/12/31 00:43:39;;;;;;;;;;;10.50;99.90;;;;;;4977607;28;20012;-70
2022/12/31 00:46:05;;;;;;;;;;;10.40;99.90;;;;;;4984968;28;20013;-69
2022/12/31 00:48:31;;;;;;;;;;;10.40;99.90;;;;;;4981359;28;19972;-69
2022/12/31 00:50:57;;;;;;;;;;;10.50;99.90;;;;;;4997052;28;19918;-69
2022/12/31 00:53:23;;;;;;;;;;;10.60;99.90;;;;;;4983209;28;19948;-69
2022/12/31 00:55:49;;;;;;;;;;;10.50;99.90;;;;;;4981340;28;19929;-70
2022/12/31 00:58:14;;;;;;;;;;;10.40;99.90;;;;;;4982348;28;19929;-70
2022/12/31 01:00:40;;;;;;;;;;;10.40;99.90;;;;;;4981870;28;19961;-70
2022/12/31 01:03:06;;;;;;;;;;;10.80;99.90;;;;;;4982072;28;19929;-70
2022/12/31 01:05:32;;;;;;;;;;;10.50;99.90;;;;;;4982711;28;19922;-69
2022/12/31 01:07:58;;;;;;;;;;;10.50;99.90;;;;;;4983829;28;20412;-70
2022/12/31 01:13:07;;;;;;;;;;;10.40;99.90;;;;;;4992604;28;19922;-70
2022/12/31 01:15:34;;;;;;;;;;;10.40;99.90;;;;;;4982889;28;19933;-70
2022/12/31 01:18:00;;;;;;;;;;;10.40;99.90;;;;;;4981831;28;19922;-70
2022/12/31 01:20:26;;;;;;;;;;;10.40;99.90;;;;;;4981980;28;20392;-69
2022/12/31 01:22:51;;;;;;;;;;;10.40;99.90;;;;;;4981617;28;19925;-69
2022/12/31 01:25:17;;;;;;;;;;;10.40;99.90;;;;;;4981873;28;19976;-70
2022/12/31 01:27:42;;;;;;;;;;;10.30;99.90;;;;;;4983873;28;19922;-70
2022/12/31 01:30:08;;;;;;;;;;;10.20;99.90;;;;;;4979470;28;19922;-69
2022/12/31 01:32:34;;;;;;;;;;;10.20;99.90;;;;;;4983975;28;19936;-69
2022/12/31 01:34:59;;;;;;;;;;;10.20;99.90;;;;;;4981740;28;20289;-69
2022/12/31 01:37:24;;;;;;;;;;;10.20;99.90;;;;;;4981073;28;19930;-69
2022/12/31 01:39:50;;;;;;;;;;;10.30;99.90;;;;;;4981547;28;19929;-69
2022/12/31 01:42:15;;;;;;;;;;;10.20;99.90;;;;;;4981132;28;19922;-70
2022/12/31 01:44:41;;;;;;;;;;;10.30;99.90;;;;;;4982152;28;20337;-70
2022/12/31 01:47:12;;;;;;;;;;;10.40;99.90;;;;;;4982326;28;19976;-69
2022/12/31 01:49:41;;;;;;;;;;;10.30;99.90;;;;;;4980516;28;19922;-70
2022/12/31 01:52:12;;;;;;;;;;;10.20;99.90;;;;;;4981847;28;19929;-70
2022/12/31 01:54:39;;;;;;;;;;;10.20;99.90;;;;;;4981913;28;19921;-70
2022/12/31 01:57:06;;;;;;;;;;;10.20;99.90;;;;;;4982780;28;19944;-70
2022/12/31 01:59:31;;;;;;;;;;;10.20;99.90;;;;;;4979689;28;20012;-70
2022/12/31 02:01:58;;;;;;;;;;;10.10;99.90;;;;;;4984155;28;20013;-71
2022/12/31 02:04:24;;;;;;;;;;;10.30;99.90;;;;;;4979672;28;20009;-70
2022/12/31 02:06:52;;;;;;;;;;;10.20;99.90;;;;;;4979984;28;20021;-70
2022/12/31 02:09:18;;;;;;;;;;;10.10;99.90;;;;;;4982774;28;20012;-70
2022/12/31 02:11:44;;;;;;;;;;;10.10;99.90;;;;;;4984546;28;20017;-69
2022/12/31 02:14:19;;;;;;;;;;;10.10;99.90;;;;;;4984372;28;20280;-70
2022/12/31 02:16:48;;;;;;;;;;;10.00;99.90;;;;;;4985397;28;19922;-70
2022/12/31 02:19:32;;;;;;;;;;;10.00;99.90;;;;;;4985452;28;20459;-70
2022/12/31 02:22:33;;;;;;;;;;;10.10;99.90;;;;;;4979605;28;19929;-70
2022/12/31 02:25:04;;;;;;;;;;;10.00;99.90;;;;;;4924971;29;19933;-70
2022/12/31 02:27:30;;;;;;;;;;;10.00;99.90;;;;;;4973278;28;19922;-70
2022/12/31 02:30:01;;;;;;;;;;;10.10;99.90;;;;;;4982773;28;19928;-71
2022/12/31 02:32:33;;;;;;;;;;;10.10;99.90;;;;;;4985965;28;19922;-70
2022/12/31 02:35:02;;;;;;;;;;;10.10;99.90;;;;;;4985162;28;19926;-70
2022/12/31 02:37:28;;;;;;;;;;;10.10;99.90;;;;;;4982616;28;19969;-70
2022/12/31 02:39:56;;;;;;;;;;;10.20;99.90;;;;;;4986214;28;20000;-70
2022/12/31 02:42:21;;;;;;;;;;;10.10;99.90;;;;;;4980556;28;19977;-70
2022/12/31 02:44:47;;;;;;;;;;;10.10;99.90;;;;;;4984139;28;19930;-70
2022/12/31 02:47:15;;;;;;;;;;;10.10;99.90;;;;;;4986706;28;19922;-70
2022/12/31 02:49:41;;;;;;;;;;;10.20;99.90;;;;;;4983262;28;20337;-70
2022/12/31 02:52:06;;;;;;;;;;;10.10;99.90;;;;;;4985946;28;19980;-70
2022/12/31 02:54:50;;;;;;;;;;;10.10;99.90;;;;;;4984352;28;19925;-71
2022/12/31 02:57:33;;;;;;;;;;;10.10;99.90;;;;;;4984017;28;20401;-69
2022/12/31 03:02:44;;;;;;;;;;;10.00;99.90;;;;;;4999141;28;19925;-70
2022/12/31 03:05:11;;;;;;;;;;;9.90;99.90;;;;;;4985142;28;19922;-70
2022/12/31 03:07:38;;;;;;;;;;;9.90;99.90;;;;;;4984466;28;20004;-70
2022/12/31 03:10:04;;;;;;;;;;;9.90;99.90;;;;;;4984318;28;20024;-70
2022/12/31 03:12:46;;;;;;;;;;;9.80;99.90;;;;;;4984542;28;20040;-70
2022/12/31 03:15:21;;;;;;;;;;;9.90;99.90;;;;;;4984985;28;19921;-70
2022/12/31 03:18:06;;;;;;;;;;;9.80;99.90;;;;;;4978362;28;19922;-70
2022/12/31 03:23:27;;;;;;;;;;;9.80;99.90;;;;;;4994763;28;19922;-70
2022/12/31 03:25:55;;;;;;;;;;;9.80;99.90;;;;;;4983211;28;19922;-70
2022/12/31 03:28:21;;;;;;;;;;;9.90;99.90;;;;;;4983371;28;20030;-69
2022/12/31 03:30:48;;;;;;;;;;;9.80;99.90;;;;;;4986811;28;19980;-70
2022/12/31 03:33:14;;;;;;;;;;;9.80;99.90;;;;;;4982325;28;19996;-70
2022/12/31 03:35:40;;;;;;;;;;;9.90;99.90;;;;;;4986570;28;20385;-70
2022/12/31 03:38:06;;;;;;;;;;;9.80;99.90;;;;;;4982950;28;20394;-70
2022/12/31 03:40:35;;;;;;;;;;;9.70;99.90;;;;;;4984446;28;20024;-70
2022/12/31 03:43:01;;;;;;;;;;;9.70;99.90;;;;;;4982686;28;19969;-70
2022/12/31 03:45:26;;;;;;;;;;;9.70;99.90;;;;;;4984580;28;19921;-70
2022/12/31 03:47:52;;;;;;;;;;;9.70;99.90;;;;;;4983840;28;19922;-70
2022/12/31 03:50:18;;;;;;;;;;;9.70;99.90;;;;;;4982147;28;19929;-70
2022/12/31 03:52:43;;;;;;;;;;;9.70;99.90;;;;;;4986201;28;19922;-70
2022/12/31 03:55:09;;;;;;;;;;;9.70;99.90;;;;;;4981998;28;19976;-70
2022/12/31 03:57:35;;;;;;;;;;;9.80;99.90;;;;;;4985709;28;19922;-70
2022/12/31 04:00:01;;;;;;;;;;;9.80;99.90;;;;;;4983011;28;20376;-70
2022/12/31 04:02:27;;;;;;;;;;;9.70;99.90;;;;;;4983581;28;19933;-70
2022/12/31 04:04:52;;;;;;;;;;;9.80;99.90;;;;;;4982799;28;20009;-70
2022/12/31 04:07:18;;;;;;;;;;;9.70;99.90;;;;;;4983421;28;19922;-70
2022/12/31 04:09:43;;;;;;;;;;;9.80;99.90;;;;;;4985215;28;20400;-70
2022/12/31 04:12:09;;;;;;;;;;;9.80;99.90;;;;;;4983015;28;19972;-70
2022/12/31 04:14:34;;;;;;;;;;;9.90;99.90;;;;;;4981543;28;20258;-70
2022/12/31 04:17:00;;;;;;;;;;;9.80;99.90;;;;;;4984107;28;19922;-70
2022/12/31 04:19:25;;;;;;;;;;;9.80;99.90;;;;;;4982368;28;19922;-70
2022/12/31 04:21:51;;;;;;;;;;;9.90;99.90;;;;;;4982454;28;19926;-70
2022/12/31 04:24:16;;;;;;;;;;;9.80;99.90;;;;;;4983483;28;19921;-70
2022/12/31 04:26:42;;;;;;;;;;;9.70;99.90;;;;;;4983259;28;20017;-70
2022/12/31 04:29:08;;;;;;;;;;;9.80;99.90;;;;;;4983898;28;19928;-70
2022/12/31 04:31:34;;;;;;;;;;;9.90;99.90;;;;;;4981027;28;19930;-70
2022/12/31 04:34:00;;;;;;;;;;;9.80;99.90;;;;;;4982475;28;19928;-70
2022/12/31 04:36:25;;;;;;;;;;;9.80;99.90;;;;;;4983735;28;19930;-70
2022/12/31 04:38:51;;;;;;;;;;;10.20;99.90;;;;;;4983003;28;19925;-70
2022/12/31 04:41:16;;;;;;;;;;;9.80;99.90;;;;;;4983574;28;20282;-70
2022/12/31 04:43:43;;;;;;;;;;;9.90;99.90;;;;;;4982587;28;19929;-70
2022/12/31 04:46:08;;;;;;;;;;;10.00;99.90;;;;;;4982129;28;20329;-70
2022/12/31 04:48:34;;;;;;;;;;;9.90;99.90;;;;;;4984884;28;19929;-70
2022/12/31 04:51:00;;;;;;;;;;;10.00;99.90;;;;;;4983743;28;20021;-70
2022/12/31 04:53:26;;;;;;;;;;;9.90;99.90;;;;;;4981588;28;19929;-70
2022/12/31 04:55:51;;;;;;;;;;;9.90;99.90;;;;;;4982803;28;20393;-70
2022/12/31 04:58:17;;;;;;;;;;;9.90;99.90;;;;;;4982380;28;20289;-70
2022/12/31 05:00:44;;;;;;;;;;;10.10;99.90;;;;;;4976774;28;20413;-69
2022/12/31 05:03:13;;;;;;;;;;;9.90;99.90;;;;;;4983008;28;19922;-70
2022/12/31 05:05:41;;;;;;;;;;;9.90;99.90;;;;;;4982663;28;19922;-69
2022/12/31 05:08:07;;;;;;;;;;;9.90;99.90;;;;;;4983876;28;20373;-73
2022/12/31 05:10:32;;;;;;;;;;;9.90;99.90;;;;;;4979797;28;19985;-70
2022/12/31 05:12:58;;;;;;;;;;;9.90;99.90;;;;;;4982608;28;19926;-71
2022/12/31 05:15:23;;;;;;;;;;;9.90;99.90;;;;;;4980213;28;20016;-69
2022/12/31 05:17:49;;;;;;;;;;;9.90;99.90;;;;;;4982534;28;19922;-69
2022/12/31 05:20:15;;;;;;;;;;;9.80;99.90;;;;;;4982385;28;19922;-70
2022/12/31 05:22:40;;;;;;;;;;;9.80;99.90;;;;;;4984258;28;19922;-71
2022/12/31 05:25:06;;;;;;;;;;;9.80;99.90;;;;;;4982355;28;19928;-71
2022/12/31 05:27:32;;;;;;;;;;;9.90;99.90;;;;;;4980966;28;19929;-72
2022/12/31 05:29:57;;;;;;;;;;;9.90;99.90;;;;;;4980583;28;19922;-70
2022/12/31 05:32:23;;;;;;;;;;;9.80;99.90;;;;;;4979193;28;19929;-70
2022/12/31 05:34:48;;;;;;;;;;;9.80;99.90;;;;;;4981943;28;19922;-70
2022/12/31 05:37:14;;;;;;;;;;;9.80;99.90;;;;;;4981971;28;19930;-70
2022/12/31 05:39:39;;;;;;;;;;;9.80;99.90;;;;;;4980277;28;20266;-70
2022/12/31 05:42:05;;;;;;;;;;;9.90;99.90;;;;;;4981196;28;19922;-71
2022/12/31 05:44:30;;;;;;;;;;;9.80;99.90;;;;;;4979569;28;19926;-71
2022/12/31 05:46:56;;;;;;;;;;;9.90;99.90;;;;;;4981606;28;19961;-70
2022/12/31 05:49:21;;;;;;;;;;;9.90;99.90;;;;;;4982876;28;20362;-70
2022/12/31 05:51:47;;;;;;;;;;;9.80;99.90;;;;;;4981164;28;19922;-70
2022/12/31 05:54:12;;;;;;;;;;;9.70;99.90;;;;;;4983415;28;19935;-70
2022/12/31 05:56:38;;;;;;;;;;;9.70;99.90;;;;;;4981498;28;19928;-70
2022/12/31 05:59:03;;;;;;;;;;;9.80;99.90;;;;;;4980954;28;20415;-71
2022/12/31 06:01:29;;;;;;;;;;;9.80;99.90;;;;;;4980420;28;19961;-70
2022/12/31 06:03:54;;;;;;;;;;;9.80;99.90;;;;;;4983458;28;20373;-70
2022/12/31 06:06:20;;;;;;;;;;;9.70;99.90;;;;;;4980725;28;20402;-71
2022/12/31 06:08:49;;;;;;;;;;;9.80;99.90;;;;;;4982590;28;19928;-71
2022/12/31 06:11:15;;;;;;;;;;;9.90;99.90;;;;;;4976765;28;20377;-71
2022/12/31 06:13:40;;;;;;;;;;;10.00;99.90;;;;;;4982688;28;19925;-71
2022/12/31 06:16:07;;;;;;;;;;;9.90;99.90;;;;;;4980706;28;19929;-70
2022/12/31 06:18:32;;;;;;;;;;;10.00;99.90;;;;;;4982565;28;19929;-70
2022/12/31 06:20:58;;;;;;;;;;;10.00;99.90;;;;;;4981049;28;19926;-71
2022/12/31 06:23:23;;;;;;;;;;;9.90;99.90;;;;;;4979989;28;19934;-70
2022/12/31 06:25:49;;;;;;;;;;;9.90;99.90;;;;;;4982512;28;19925;-71
2022/12/31 06:28:14;;;;;;;;;;;10.00;99.90;;;;;;4979142;28;19930;-71
2022/12/31 06:30:40;;;;;;;;;;;10.00;99.90;;;;;;4983827;28;20011;-71
2022/12/31 06:33:05;;;;;;;;;;;10.00;99.90;;;;;;4981344;28;20382;-71
2022/12/31 06:35:31;;;;;;;;;;;10.00;99.90;;;;;;4980815;28;19922;-71
2022/12/31 06:37:56;;;;;;;;;;;10.00;99.90;;;;;;4981411;28;19929;-70
2022/12/31 06:40:22;;;;;;;;;;;10.00;99.90;;;;;;4981511;28;19926;-71
2022/12/31 06:42:47;;;;;;;;;;;9.90;99.90;;;;;;4982905;28;19977;-70
2022/12/31 06:45:13;;;;;;;;;;;9.90;99.90;;;;;;4980466;28;19953;-71
2022/12/31 06:47:39;;;;;;;;;;;9.90;99.90;;;;;;4980292;28;20285;-70
2022/12/31 06:50:05;;;;;;;;;;;9.80;99.90;;;;;;4982032;28;19929;-70
2022/12/31 06:52:31;;;;;;;;;;;9.80;99.90;;;;;;4980889;28;19921;-71
2022/12/31 06:54:57;;;;;;;;;;;9.80;99.90;;;;;;4981345;28;19928;-71
2022/12/31 06:57:22;;;;;;;;;;;9.80;99.90;;;;;;4984457;28;19928;-72
2022/12/31 06:59:48;;;;;;;;;;;9.90;99.90;;;;;;4983630;28;19922;-72
2022/12/31 07:02:33;;;;;;;;;;;10.00;99.90;;;;;;4986966;28;19921;-72
2022/12/31 07:05:05;;;;;;;;;;;9.90;99.90;;;;;;4984708;28;20016;-71
2022/12/31 07:07:46;;;;;;;;;;;9.80;99.90;;;;;;4983550;28;20444;-72
2022/12/31 07:10:17;;;;;;;;;;;9.70;99.90;;;;;;4979760;28;19921;-72
2022/12/31 07:12:51;;;;;;;;;;;9.70;99.90;;;;;;4986076;28;20377;-72
2022/12/31 07:15:23;;;;;;;;;;;9.70;99.90;;;;;;4984106;28;19921;-72
2022/12/31 07:17:57;;;;;;;;;;;9.60;99.90;;;;;;4981394;28;20349;-72
2022/12/31 07:20:23;;;;;;;;;;;9.70;99.90;;;;;;4984304;28;19922;-72
2022/12/31 07:22:49;;;;;;;;;;;9.70;99.90;;;;;;4985595;28;19924;-71
2022/12/31 07:25:16;;;;;;;;;;;9.60;99.90;;;;;;4981890;28;20381;-72
2022/12/31 07:28:01;;;;;;;;;;;9.60;99.90;;;;;;4985799;28;19928;-72
2022/12/31 07:30:41;;;;;;;;;;;9.60;99.90;;;;;;4985679;28;19938;-71
2022/12/31 07:33:10;;;;;;;;;;;9.60;99.90;;;;;;4977844;28;19936;-71
2022/12/31 07:35:35;;;;;;;;;;;9.60;99.90;;;;;;4981524;28;19932;-72
2022/12/31 07:38:14;;;;;;;;;;;10.20;99.90;;;;;;4986377;28;20004;-72
2022/12/31 07:40:57;;;;;;;;;;;9.50;99.90;;;;;;4980890;28;19922;-72
2022/12/31 07:43:23;;;;;;;;;;;9.60;99.90;;;;;;4983804;28;19976;-72
2022/12/31 07:45:57;;;;;;;;;;;9.50;99.90;;;;;;4983147;28;20004;-72
2022/12/31 07:48:24;;;;;;;;;;;9.50;99.90;;;;;;4983791;28;20374;-72
2022/12/31 07:50:50;;;;;;;;;;;9.60;99.90;;;;;;4984542;28;19921;-72
2022/12/31 07:53:16;;;;;;;;;;;9.60;99.90;;;;;;4979642;28;19921;-72
2022/12/31 07:55:41;;;;;;;;;;;9.60;99.90;;;;;;4982054;28;19929;-72
2022/12/31 07:58:16;;;;;;;;;;;10.40;99.90;;;;;;4985857;28;19929;-72
2022/12/31 08:00:42;;;;;;;;;;;9.80;99.90;;;;;;4984056;28;19921;-72
2022/12/31 08:03:13;;;;;;;;;;;9.90;99.90;;;;;;4983745;28;20258;-72
2022/12/31 08:06:03;;;;;;;;;;;10.00;99.90;;;;;;4982749;28;19942;-72
2022/12/31 08:08:38;;;;;;;;;;;9.80;99.90;;;;;;4978084;28;19922;-72
2022/12/31 08:11:13;;;;;;;;;;;9.80;99.90;;;;;;4980421;28;19968;-72
2022/12/31 08:13:40;;;;;;;;;;;9.80;99.90;;;;;;4983971;28;19921;-72
2022/12/31 08:16:09;;;;;;;;;;;9.90;99.90;;;;;;4982264;28;19922;-72
2022/12/31 08:18:34;;;;;;;;;;;9.90;99.90;;;;;;4984564;28;19929;-72
2022/12/31 08:21:19;;;;;;;;;;;9.90;99.90;;;;;;4982367;28;20308;-72
2022/12/31 08:23:52;;;;;;;;;;;10.00;99.90;;;;;;4980871;28;20433;-72
2022/12/31 08:26:22;;;;;;;;;;;9.90;99.90;;;;;;4982325;28;19930;-71
2022/12/31 08:29:03;;;;;;;;;;;10.00;99.90;;;;;;4985439;28;19937;-71
2022/12/31 08:31:48;;;;;;;;;;;10.10;99.90;;;;;;4979336;28;19944;-71
2022/12/31 08:34:34;;;;;;;;;;;10.10;99.90;;;;;;4981727;28;20392;-72
2022/12/31 08:37:14;;;;;;;;;;;10.20;99.90;;;;;;4981370;28;19922;-70
2022/12/31 08:39:51;;;;;;;;;;;10.10;99.90;;;;;;4982133;28;20362;-70
2022/12/31 08:42:23;;;;;;;;;;;10.30;99.90;;;;;;4982816;28;19922;-70
2022/12/31 08:45:00;;;;;;;;;;;10.40;99.90;;;;;;4984590;28;19928;-71
2022/12/31 08:47:37;;;;;;;;;;;10.40;99.90;;;;;;4978532;28;19929;-70
2022/12/31 08:50:02;;;;;;;;;;;10.60;99.90;;;;;;4981337;28;19925;-72
2022/12/31 08:52:29;;;;;;;;;;;9.90;99.90;;;;;;4986128;28;20404;-71
2022/12/31 08:54:54;;;;;;;;;;;10.70;99.90;;;;;;4981261;28;19945;-71
2022/12/31 08:57:32;;;;;;;;;;;10.70;99.90;;;;;;4984362;28;19921;-72
2022/12/31 09:00:10;;;;;;;;;;;10.70;99.90;;;;;;4979757;28;20259;-72
2022/12/31 09:02:36;;;;;;;;;;;10.80;99.90;;;;;;4983289;28;19921;-70
2022/12/31 09:05:14;;;;;;;;;;;10.80;99.90;;;;;;4984413;28;19929;-70
2022/12/31 09:07:42;;;;;;;;;;;10.90;99.90;;;;;;4982406;28;20284;-68
2022/12/31 09:10:08;;;;;;;;;;;11.00;99.90;;;;;;4982374;28;20032;-68
2022/12/31 09:12:40;;;;;;;;;;;10.90;99.90;;;;;;4981123;28;20389;-71
2022/12/31 09:15:26;;;;;;;;;;;10.90;99.90;;;;;;4979724;28;20354;-75
2022/12/31 09:17:52;;;;;;;;;;;11.10;99.90;;;;;;4978680;28;19932;-74
2022/12/31 09:20:25;;;;;;;;;;;11.20;99.90;;;;;;4983392;28;20033;-70
2022/12/31 09:22:51;;;;;;;;;;;11.40;99.90;;;;;;4977199;28;19968;-71
2022/12/31 09:25:19;;;;;;;;;;;11.50;99.90;;;;;;4982179;28;19932;-72
2022/12/31 09:27:50;;;;;;;;;;;11.50;99.90;;;;;;4980009;28;19926;-69
2022/12/31 09:30:16;;;;;;;;;;;11.50;99.90;;;;;;4981663;28;19922;-70
2022/12/31 09:32:58;;;;;;;;;;;11.60;99.90;;;;;;4979880;28;19922;-69
2022/12/31 09:35:32;;;;;;;;;;;11.70;99.90;;;;;;4979132;28;19929;-70
2022/12/31 09:38:04;;;;;;;;;;;11.60;99.90;;;;;;4980605;28;19925;-70
2022/12/31 09:40:45;;;;;;;;;;;11.60;99.90;;;;;;4977740;28;19922;-69
2022/12/31 09:43:23;;;;;;;;;;;11.70;99.90;;;;;;4977151;28;19922;-70
2022/12/31 09:46:07;;;;;;;;;;;11.70;99.90;;;;;;4974822;28;19972;-70
2022/12/31 09:48:35;;;;;;;;;;;11.80;99.90;;;;;;4977417;28;20428;-70
2022/12/31 09:51:08;;;;;;;;;;;11.80;99.90;;;;;;4980247;28;19922;-70
2022/12/31 09:53:33;;;;;;;;;;;11.90;99.90;;;;;;4977398;28;19926;-70
2022/12/31 09:56:14;;;;;;;;;;;11.80;99.90;;;;;;4981791;28;19973;-70
2022/12/31 09:58:55;;;;;;;;;;;11.90;99.90;;;;;;4974988;28;19926;-70
2022/12/31 10:01:36;;;;;;;;;;;12.00;99.90;;;;;;4975560;28;20025;-69
2022/12/31 10:04:20;;;;;;;;;;;12.20;99.90;;;;;;4976038;28;20450;-70
2022/12/31 10:06:46;;;;;;;;;;;12.20;99.90;;;;;;4973112;28;19945;-69
2022/12/31 10:09:27;;;;;;;;;;;12.20;99.90;;;;;;4979973;28;19947;-70
2022/12/31 10:12:01;;;;;;;;;;;12.30;99.90;;;;;;4977032;28;20338;-70
2022/12/31 10:14:27;;;;;;;;;;;12.30;99.90;;;;;;4976731;28;19922;-70
2022/12/31 10:16:57;;;;;;;;;;;12.30;99.90;;;;;;4982308;28;19925;-70
2022/12/31 10:19:33;;;;;;;;;;;12.30;99.90;;;;;;4982439;28;19922;-70
2022/12/31 10:22:07;;;;;;;;;;;12.30;99.90;;;;;;4980616;28;20377;-70
2022/12/31 10:24:57;;;;;;;;;;;12.30;99.90;;;;;;4982529;28;19922;-70
2022/12/31 10:27:46;;;;;;;;;;;12.50;99.90;;;;;;4981019;28;19922;-70
2022/12/31 10:30:19;;;;;;;;;;;12.40;99.90;;;;;;4977622;28;20394;-70
2022/12/31 10:32:45;;;;;;;;;;;12.30;99.90;;;;;;4984033;28;19932;-69
2022/12/31 10:35:10;;;;;;;;;;;12.40;99.90;;;;;;4986721;28;19925;-70
2022/12/31 10:37:45;;;;;;;;;;;12.40;99.90;;;;;;4984038;28;20395;-70
2022/12/31 10:40:18;;;;;;;;;;;12.30;99.90;;;;;;4986520;28;20047;-70
2022/12/31 10:43:01;;;;;;;;;;;12.40;99.90;;;;;;4984768;28;20444;-70
2022/12/31 10:45:45;;;;;;;;;;;12.40;99.90;;;;;;4983180;28;19964;-70
2022/12/31 10:48:20;;;;;;;;;;;12.40;99.90;;;;;;4981362;28;19928;-70
2022/12/31 10:51:04;;;;;;;;;;;12.60;99.90;;;;;;4983914;28;19977;-70
2022/12/31 10:53:40;;;;;;;;;;;12.60;99.90;;;;;;4980158;28;19922;-70
2022/12/31 10:56:11;;;;;;;;;;;12.80;99.90;;;;;;4986016;28;19928;-70
2022/12/31 10:58:43;;;;;;;;;;;12.80;99.90;;;;;;4984505;28;19926;-70
2022/12/31 11:01:17;;;;;;;;;;;12.90;99.90;;;;;;4985112;28;19922;-70
2022/12/31 11:03:43;;;;;;;;;;;13.00;99.90;;;;;;4981764;28;19926;-70
2022/12/31 11:06:18;;;;;;;;;;;12.90;99.90;;;;;;4983859;28;19976;-70
2022/12/31 11:09:08;;;;;;;;;;;12.70;99.90;;;;;;4983220;28;19921;-72
2022/12/31 11:11:37;;;;;;;;;;;12.70;99.90;;;;;;4984345;28;19926;-70
2022/12/31 11:14:21;;;;;;;;;;;12.60;99.90;;;;;;4985111;28;19996;-72
2022/12/31 11:16:59;;;;;;;;;;;12.50;99.90;;;;;;4983074;28;19922;-71
2022/12/31 11:19:36;;;;;;;;;;;12.50;99.90;;;;;;4979544;28;19965;-73
2022/12/31 11:22:08;;;;;;;;;;;12.40;99.90;;;;;;4979987;28;19925;-75
2022/12/31 11:24:46;;;;;;;;;;;12.40;99.90;;;;;;4983516;28;19926;-73
2022/12/31 11:27:31;;;;;;;;;;;12.40;99.90;;;;;;4985452;28;19921;-73
2022/12/31 11:30:09;;;;;;;;;;;12.40;99.90;;;;;;4953763;28;19933;-72
2022/12/31 11:32:37;;;;;;;;;;;12.40;99.90;;;;;;4982224;28;20404;-69
2022/12/31 11:35:05;;;;;;;;;;;12.60;99.90;;;;;;4975271;28;19926;-72
2022/12/31 11:37:35;;;;;;;;;;;12.50;99.90;;;;;;4980577;28;19922;-71
2022/12/31 11:40:01;;;;;;;;;;;12.60;99.90;;;;;;4982443;28;19926;-70
2022/12/31 11:42:40;;;;;;;;;;;12.70;99.90;;;;;;4981412;28;19985;-70
2022/12/31 11:45:24;;;;;;;;;;;12.70;99.90;;;;;;4984408;28;19921;-72
2022/12/31 11:48:08;;;;;;;;;;;12.70;99.90;;;;;;4976431;28;20370;-71
2022/12/31 11:50:57;;;;;;;;;;;12.70;99.90;;;;;;4976001;28;20077;-72
2022/12/31 11:53:32;;;;;;;;;;;12.70;99.90;;;;;;4950196;28;19922;-72
2022/12/31 11:56:09;;;;;;;;;;;12.70;99.90;;;;;;4981008;28;20013;-71
2022/12/31 11:58:35;;;;;;;;;;;12.70;99.90;;;;;;4977949;28;19973;-72
2022/12/31 12:01:12;;;;;;;;;;;12.80;99.90;;;;;;4981630;28;19980;-73
2022/12/31 12:03:42;;;;;;;;;;;12.80;99.90;;;;;;4982678;28;20381;-73
2022/12/31 12:06:10;;;;;;;;;;;12.90;99.90;;;;;;4983374;28;20278;-72
2022/12/31 12:08:36;;;;;;;;;;;12.70;99.90;;;;;;4982727;28;19929;-71
2022/12/31 12:11:05;;;;;;;;;;;12.70;99.90;;;;;;4984031;28;19921;-73
2022/12/31 12:13:30;;;;;;;;;;;12.70;99.90;;;;;;4983191;28;20285;-73
2022/12/31 12:15:57;;;;;;;;;;;12.80;99.90;;;;;;4984592;28;19922;-72
2022/12/31 12:18:26;;;;;;;;;;;12.80;99.90;;;;;;4981964;28;19921;-71
2022/12/31 12:20:52;;;;;;;;;;;12.70;99.90;;;;;;4984572;28;19933;-74
2022/12/31 12:23:23;;;;;;;;;;;12.70;99.90;;;;;;4981003;28;20266;-72
2022/12/31 12:25:48;;;;;;;;;;;12.70;99.90;;;;;;4982976;28;19954;-75
2022/12/31 12:28:17;;;;;;;;;;;12.70;99.90;;;;;;4981087;28;19973;-72
2022/12/31 12:30:43;;;;;;;;;;;12.70;99.90;;;;;;4977372;28;20389;-71
2022/12/31 12:33:17;;;;;;;;;;;12.60;99.90;;;;;;4981087;28;19922;-72
2022/12/31 12:35:42;;;;;;;;;;;12.60;99.90;;;;;;4980390;28;20000;-72
2022/12/31 12:38:14;;;;;;;;;;;12.50;99.90;;;;;;4985356;28;20373;-71
2022/12/31 12:40:40;;;;;;;;;;;12.50;99.90;;;;;;4981608;28;19933;-70
2022/12/31 12:43:18;;;;;;;;;;;12.50;99.90;;;;;;4984462;28;19925;-70
2022/12/31 12:45:45;;;;;;;;;;;12.50;99.90;;;;;;4978258;28;19930;-71
2022/12/31 12:48:29;;;;;;;;;;;12.50;99.90;;;;;;4985100;28;19921;-71
2022/12/31 12:50:55;;;;;;;;;;;12.50;99.90;;;;;;4980239;28;20460;-71
2022/12/31 12:53:39;;;;;;;;;;;12.50;99.90;;;;;;4981917;28;19925;-71
2022/12/31 12:56:11;;;;;;;;;;;12.60;99.90;;;;;;4982164;28;19932;-69
2022/12/31 12:58:49;;;;;;;;;;;12.60;99.90;;;;;;4979921;28;19922;-71
2022/12/31 13:01:21;;;;;;;;;;;12.60;99.90;;;;;;4978873;28;19933;-71
2022/12/31 13:03:58;;;;;;;;;;;12.50;99.90;;;;;;4977678;28;19922;-71
2022/12/31 13:06:38;;;;;;;;;;;12.70;99.90;;;;;;4971056;28;19921;-70
2022/12/31 13:09:16;;;;;;;;;;;12.50;99.90;;;;;;4975689;28;19921;-71
2022/12/31 13:11:45;;;;;;;;;;;12.40;99.90;;;;;;4978341;28;19929;-70
2022/12/31 13:14:29;;;;;;;;;;;12.40;99.90;;;;;;4983191;28;19922;-70
2022/12/31 13:16:57;;;;;;;;;;;12.50;99.90;;;;;;4982473;28;20016;-70
2022/12/31 13:19:22;;;;;;;;;;;12.40;99.90;;;;;;4982822;28;19922;-70
2022/12/31 13:21:58;;;;;;;;;;;12.40;99.90;;;;;;4983424;28;19945;-69
2022/12/31 13:25:02;;;;;;;;;;;12.50;99.90;;;;;;4983578;28;19926;-69
2022/12/31 13:27:30;;;;;;;;;;;12.40;99.90;;;;;;4889247;29;19931;-70
2022/12/31 13:29:59;;;;;;;;;;;12.40;99.90;;;;;;4902727;29;20036;-69
2022/12/31 13:32:29;;;;;;;;;;;12.40;99.90;;;;;;4933642;28;19928;-70
2022/12/31 13:34:56;;;;;;;;;;;12.40;99.90;;;;;;4979700;28;19922;-70
2022/12/31 13:37:35;;;;;;;;;;;12.30;99.90;;;;;;4971275;28;19929;-69
2022/12/31 13:40:03;;;;;;;;;;;12.30;99.90;;;;;;4979545;28;19922;-69
2022/12/31 13:42:38;;;;;;;;;;;12.30;99.90;;;;;;4979677;28;19944;-69
2022/12/31 13:45:09;;;;;;;;;;;12.20;99.90;;;;;;4971240;28;20404;-71
2022/12/31 13:47:40;;;;;;;;;;;12.20;99.90;;;;;;4973716;28;20266;-73
2022/12/31 13:50:25;;;;;;;;;;;12.20;99.90;;;;;;4981262;28;20012;-70
2022/12/31 13:52:54;;;;;;;;;;;12.20;99.90;;;;;;4976044;28;19928;-70
2022/12/31 13:55:22;;;;;;;;;;;12.20;99.90;;;;;;4979960;28;19926;-69
2022/12/31 13:58:03;;;;;;;;;;;12.10;99.90;;;;;;4981073;28;19949;-72
2022/12/31 14:00:33;;;;;;;;;;;12.30;99.90;;;;;;4978730;28;19932;-72
2022/12/31 14:03:11;;;;;;;;;;;12.30;99.90;;;;;;4979745;28;19926;-73
2022/12/31 14:05:47;;;;;;;;;;;12.30;99.90;;;;;;4979219;28;19988;-71
2022/12/31 14:08:14;;;;;;;;;;;12.30;99.90;;;;;;4973081;28;19930;-73
2022/12/31 14:10:59;;;;;;;;;;;12.30;99.90;;;;;;4977076;28;19948;-74
2022/12/31 14:13:43;;;;;;;;;;;12.20;99.90;;;;;;4979203;28;19928;-71
2022/12/31 14:16:11;;;;;;;;;;;12.20;99.90;;;;;;4981731;28;19965;-71
2022/12/31 14:18:41;;;;;;;;;;;12.10;99.90;;;;;;4984807;28;19930;-71
2022/12/31 14:21:10;;;;;;;;;;;12.10;99.90;;;;;;4984881;28;19922;-69
2022/12/31 14:23:39;;;;;;;;;;;12.10;99.90;;;;;;4986590;28;19986;-69
2022/12/31 14:26:26;;;;;;;;;;;12.10;99.90;;;;;;4984648;28;19922;-70
2022/12/31 14:29:05;;;;;;;;;;;12.10;99.90;;;;;;4973653;28;19925;-71
2022/12/31 14:31:31;;;;;;;;;;;12.00;99.90;;;;;;4981815;28;19922;-74
2022/12/31 14:34:01;;;;;;;;;;;12.00;99.90;;;;;;4985416;28;19929;-72
2022/12/31 14:36:32;;;;;;;;;;;12.00;99.90;;;;;;4987875;28;19922;-70
2022/12/31 14:39:00;;;;;;;;;;;12.00;99.90;;;;;;4984707;28;19922;-70
2022/12/31 14:41:38;;;;;;;;;;;11.90;99.90;;;;;;4985224;28;19922;-70
2022/12/31 14:44:22;;;;;;;;;;;11.90;99.90;;;;;;4982638;28;19922;-71
2022/12/31 14:46:48;;;;;;;;;;;11.90;99.90;;;;;;4982758;28;19922;-73
2022/12/31 14:49:19;;;;;;;;;;;12.00;99.90;;;;;;4984576;28;19936;-74